sensor_id;sensor_type;location;lat;lon;timestamp;P1;durP1;ratioP1;P2;durP2;ratioP2
61085;SDS011;46967;48.876;2.136;2023-07-31T00:01:10;6.32;;;2.13;;
61085;SDS011;46967;48.876;2.136;2023-07-31T00:03:35;5.28;;;2.20;;
61085;SDS011;46967;48.876;2.136;2023-07-31T00:06:01;5.28;;;2.20;;
61085;SDS011;46967;48.876;2.136;2023-07-31T00:08:26;5.15;;;1.92;;
61085;SDS011;46967;48.876;2.136;2023-07-31T00:10:52;6.85;;;2.08;;
61085;SDS011;46967;48.876;2.136;2023-07-31T00:13:18;7.07;;;2.38;;
61085;SDS011;46967;48.876;2.136;2023-07-31T00:15:46;7.95;;;2.20;;
61085;SDS011;46967;48.876;2.136;2023-07-31T00:18:11;8.27;;;1.85;;
61085;SDS011;46967;48.876;2.136;2023-07-31T00:20:36;3.92;;;1.98;;
61085;SDS011;46967;48.876;2.136;2023-07-31T00:23:02;6.35;;;2.20;;
61085;SDS011;46967;48.876;2.136;2023-07-31T00:25:27;5.80;;;2.05;;
61085;SDS011;46967;48.876;2.136;2023-07-31T00:27:52;4.50;;;1.98;;
61085;SDS011;46967;48.876;2.136;2023-07-31T00:30:18;8.35;;;2.10;;
61085;SDS011;46967;48.876;2.136;2023-07-31T00:32:43;6.43;;;1.85;;
61085;SDS011;46967;48.876;2.136;2023-07-31T00:35:09;5.30;;;1.90;;
61085;SDS011;46967;48.876;2.136;2023-07-31T00:37:34;5.18;;;1.95;;
61085;SDS011;46967;48.876;2.136;2023-07-31T00:39:59;7.97;;;2.20;;
61085;SDS011;46967;48.876;2.136;2023-07-31T00:42:25;7.78;;;2.25;;
61085;SDS011;46967;48.876;2.136;2023-07-31T00:44:50;6.55;;;2.13;;
61085;SDS011;46967;48.876;2.136;2023-07-31T00:47:16;7.75;;;2.28;;
61085;SDS011;46967;48.876;2.136;2023-07-31T00:49:41;6.40;;;2.17;;
61085;SDS011;46967;48.876;2.136;2023-07-31T00:52:07;4.95;;;2.13;;
61085;SDS011;46967;48.876;2.136;2023-07-31T00:54:32;6.28;;;1.88;;
61085;SDS011;46967;48.876;2.136;2023-07-31T00:56:58;4.60;;;2.22;;
61085;SDS011;46967;48.876;2.136;2023-07-31T00:59:25;5.40;;;1.70;;
61085;SDS011;46967;48.876;2.136;2023-07-31T01:01:50;5.88;;;2.00;;
61085;SDS011;46967;48.876;2.136;2023-07-31T01:04:16;5.78;;;1.90;;
61085;SDS011;46967;48.876;2.136;2023-07-31T01:06:48;6.43;;;1.98;;
61085;SDS011;46967;48.876;2.136;2023-07-31T01:12:29;8.27;;;2.05;;
61085;SDS011;46967;48.876;2.136;2023-07-31T01:15:03;6.20;;;2.25;;
61085;SDS011;46967;48.876;2.136;2023-07-31T01:17:30;5.22;;;1.85;;
61085;SDS011;46967;48.876;2.136;2023-07-31T01:19:55;4.78;;;1.95;;
61085;SDS011;46967;48.876;2.136;2023-07-31T01:27:37;6.85;;;1.95;;
61085;SDS011;46967;48.876;2.136;2023-07-31T01:30:16;5.82;;;2.20;;
61085;SDS011;46967;48.876;2.136;2023-07-31T01:32:44;4.53;;;1.77;;
61085;SDS011;46967;48.876;2.136;2023-07-31T01:35:13;4.10;;;1.95;;
61085;SDS011;46967;48.876;2.136;2023-07-31T01:37:38;5.68;;;1.60;;
61085;SDS011;46967;48.876;2.136;2023-07-31T01:40:04;4.22;;;1.73;;
61085;SDS011;46967;48.876;2.136;2023-07-31T01:42:30;5.95;;;1.85;;
61085;SDS011;46967;48.876;2.136;2023-07-31T01:44:55;4.82;;;1.70;;
61085;SDS011;46967;48.876;2.136;2023-07-31T01:47:21;5.00;;;1.85;;
61085;SDS011;46967;48.876;2.136;2023-07-31T01:49:46;6.55;;;2.20;;
61085;SDS011;46967;48.876;2.136;2023-07-31T01:52:11;4.40;;;1.83;;
61085;SDS011;46967;48.876;2.136;2023-07-31T01:54:37;6.95;;;2.10;;
61085;SDS011;46967;48.876;2.136;2023-07-31T01:57:02;7.38;;;1.90;;
61085;SDS011;46967;48.876;2.136;2023-07-31T01:59:27;3.33;;;1.98;;
61085;SDS011;46967;48.876;2.136;2023-07-31T02:01:54;4.30;;;1.80;;
61085;SDS011;46967;48.876;2.136;2023-07-31T02:04:19;4.95;;;1.75;;
61085;SDS011;46967;48.876;2.136;2023-07-31T02:06:44;7.68;;;1.90;;
61085;SDS011;46967;48.876;2.136;2023-07-31T02:09:10;6.85;;;1.65;;
61085;SDS011;46967;48.876;2.136;2023-07-31T02:11:35;4.53;;;1.67;;
61085;SDS011;46967;48.876;2.136;2023-07-31T02:14:00;7.43;;;1.90;;
61085;SDS011;46967;48.876;2.136;2023-07-31T02:16:26;3.20;;;1.67;;
61085;SDS011;46967;48.876;2.136;2023-07-31T02:18:51;5.10;;;1.63;;
61085;SDS011;46967;48.876;2.136;2023-07-31T02:21:16;6.72;;;2.03;;
61085;SDS011;46967;48.876;2.136;2023-07-31T02:23:42;3.10;;;1.42;;
61085;SDS011;46967;48.876;2.136;2023-07-31T02:26:07;6.00;;;1.60;;
61085;SDS011;46967;48.876;2.136;2023-07-31T02:28:32;2.97;;;1.63;;
61085;SDS011;46967;48.876;2.136;2023-07-31T02:30:58;4.45;;;1.40;;
61085;SDS011;46967;48.876;2.136;2023-07-31T02:33:23;5.25;;;1.85;;
61085;SDS011;46967;48.876;2.136;2023-07-31T02:35:48;4.60;;;1.52;;
61085;SDS011;46967;48.876;2.136;2023-07-31T02:38:14;6.78;;;1.75;;
61085;SDS011;46967;48.876;2.136;2023-07-31T02:40:39;4.78;;;1.50;;
61085;SDS011;46967;48.876;2.136;2023-07-31T02:43:06;3.17;;;1.45;;
61085;SDS011;46967;48.876;2.136;2023-07-31T02:45:32;6.22;;;1.60;;
61085;SDS011;46967;48.876;2.136;2023-07-31T02:47:57;6.07;;;1.35;;
61085;SDS011;46967;48.876;2.136;2023-07-31T02:50:23;4.30;;;1.60;;
61085;SDS011;46967;48.876;2.136;2023-07-31T02:52:48;4.30;;;1.48;;
61085;SDS011;46967;48.876;2.136;2023-07-31T02:55:13;4.50;;;1.55;;
61085;SDS011;46967;48.876;2.136;2023-07-31T02:57:39;3.00;;;1.30;;
61085;SDS011;46967;48.876;2.136;2023-07-31T03:00:04;5.25;;;1.45;;
61085;SDS011;46967;48.876;2.136;2023-07-31T03:02:31;5.93;;;1.55;;
61085;SDS011;46967;48.876;2.136;2023-07-31T03:04:57;7.30;;;1.40;;
61085;SDS011;46967;48.876;2.136;2023-07-31T03:07:22;4.53;;;1.50;;
61085;SDS011;46967;48.876;2.136;2023-07-31T03:09:47;3.03;;;1.50;;
61085;SDS011;46967;48.876;2.136;2023-07-31T03:12:13;5.97;;;1.65;;
61085;SDS011;46967;48.876;2.136;2023-07-31T03:14:38;6.03;;;1.63;;
61085;SDS011;46967;48.876;2.136;2023-07-31T03:17:04;2.80;;;1.40;;
61085;SDS011;46967;48.876;2.136;2023-07-31T03:19:32;5.65;;;1.48;;
61085;SDS011;46967;48.876;2.136;2023-07-31T03:21:58;7.53;;;1.60;;
61085;SDS011;46967;48.876;2.136;2023-07-31T03:24:24;4.38;;;1.60;;
61085;SDS011;46967;48.876;2.136;2023-07-31T03:26:50;4.43;;;1.63;;
61085;SDS011;46967;48.876;2.136;2023-07-31T03:29:16;4.25;;;1.50;;
61085;SDS011;46967;48.876;2.136;2023-07-31T03:31:41;4.50;;;1.52;;
61085;SDS011;46967;48.876;2.136;2023-07-31T03:34:06;6.03;;;1.63;;
61085;SDS011;46967;48.876;2.136;2023-07-31T03:36:32;6.60;;;1.70;;
61085;SDS011;46967;48.876;2.136;2023-07-31T03:38:57;4.13;;;1.60;;
61085;SDS011;46967;48.876;2.136;2023-07-31T03:41:23;9.10;;;1.73;;
61085;SDS011;46967;48.876;2.136;2023-07-31T03:43:49;5.80;;;1.67;;
61085;SDS011;46967;48.876;2.136;2023-07-31T03:46:20;4.97;;;1.77;;
61085;SDS011;46967;48.876;2.136;2023-07-31T03:48:46;4.15;;;1.40;;
61085;SDS011;46967;48.876;2.136;2023-07-31T03:51:12;4.53;;;1.80;;
61085;SDS011;46967;48.876;2.136;2023-07-31T03:53:37;3.20;;;1.52;;
61085;SDS011;46967;48.876;2.136;2023-07-31T03:56:02;6.18;;;1.75;;
61085;SDS011;46967;48.876;2.136;2023-07-31T03:58:28;5.88;;;1.95;;
61085;SDS011;46967;48.876;2.136;2023-07-31T04:00:53;5.18;;;2.08;;
61085;SDS011;46967;48.876;2.136;2023-07-31T04:03:19;4.50;;;1.90;;
61085;SDS011;46967;48.876;2.136;2023-07-31T04:05:44;4.63;;;1.80;;
61085;SDS011;46967;48.876;2.136;2023-07-31T04:08:10;6.55;;;1.90;;
61085;SDS011;46967;48.876;2.136;2023-07-31T04:10:35;4.75;;;2.00;;
61085;SDS011;46967;48.876;2.136;2023-07-31T04:13:00;3.28;;;1.88;;
61085;SDS011;46967;48.876;2.136;2023-07-31T04:15:26;7.65;;;1.90;;
61085;SDS011;46967;48.876;2.136;2023-07-31T04:17:51;9.23;;;2.22;;
61085;SDS011;46967;48.876;2.136;2023-07-31T04:20:17;6.82;;;2.28;;
61085;SDS011;46967;48.876;2.136;2023-07-31T04:22:42;8.23;;;1.85;;
61085;SDS011;46967;48.876;2.136;2023-07-31T04:25:07;6.20;;;2.53;;
61085;SDS011;46967;48.876;2.136;2023-07-31T04:27:33;7.32;;;2.10;;
61085;SDS011;46967;48.876;2.136;2023-07-31T04:29:58;8.57;;;2.42;;
61085;SDS011;46967;48.876;2.136;2023-07-31T04:32:24;8.90;;;2.15;;
61085;SDS011;46967;48.876;2.136;2023-07-31T04:34:49;4.63;;;1.98;;
61085;SDS011;46967;48.876;2.136;2023-07-31T04:37:14;7.25;;;2.17;;
61085;SDS011;46967;48.876;2.136;2023-07-31T04:39:40;6.00;;;2.10;;
61085;SDS011;46967;48.876;2.136;2023-07-31T04:42:05;3.90;;;2.05;;
61085;SDS011;46967;48.876;2.136;2023-07-31T04:44:30;8.43;;;2.80;;
61085;SDS011;46967;48.876;2.136;2023-07-31T04:46:55;5.07;;;2.10;;
61085;SDS011;46967;48.876;2.136;2023-07-31T04:49:21;6.93;;;2.22;;
61085;SDS011;46967;48.876;2.136;2023-07-31T04:51:47;6.80;;;2.30;;
61085;SDS011;46967;48.876;2.136;2023-07-31T04:54:12;6.55;;;2.40;;
61085;SDS011;46967;48.876;2.136;2023-07-31T04:56:39;9.88;;;2.70;;
61085;SDS011;46967;48.876;2.136;2023-07-31T04:59:05;6.43;;;2.38;;
61085;SDS011;46967;48.876;2.136;2023-07-31T05:01:30;10.15;;;2.75;;
61085;SDS011;46967;48.876;2.136;2023-07-31T05:03:55;7.75;;;2.80;;
61085;SDS011;46967;48.876;2.136;2023-07-31T05:06:21;7.57;;;2.75;;
61085;SDS011;46967;48.876;2.136;2023-07-31T05:08:46;7.93;;;2.70;;
61085;SDS011;46967;48.876;2.136;2023-07-31T05:11:11;8.18;;;2.60;;
61085;SDS011;46967;48.876;2.136;2023-07-31T05:13:37;10.27;;;3.30;;
61085;SDS011;46967;48.876;2.136;2023-07-31T05:16:03;9.93;;;2.78;;
61085;SDS011;46967;48.876;2.136;2023-07-31T05:18:28;6.68;;;2.38;;
61085;SDS011;46967;48.876;2.136;2023-07-31T05:20:54;6.68;;;2.50;;
61085;SDS011;46967;48.876;2.136;2023-07-31T05:23:19;9.65;;;2.65;;
61085;SDS011;46967;48.876;2.136;2023-07-31T05:25:44;9.60;;;3.65;;
61085;SDS011;46967;48.876;2.136;2023-07-31T05:28:11;9.35;;;3.17;;
61085;SDS011;46967;48.876;2.136;2023-07-31T05:30:37;9.07;;;3.13;;
61085;SDS011;46967;48.876;2.136;2023-07-31T05:33:02;8.07;;;3.15;;
61085;SDS011;46967;48.876;2.136;2023-07-31T05:35:27;11.52;;;3.75;;
61085;SDS011;46967;48.876;2.136;2023-07-31T05:37:53;11.70;;;3.28;;
61085;SDS011;46967;48.876;2.136;2023-07-31T05:40:18;8.20;;;3.10;;
61085;SDS011;46967;48.876;2.136;2023-07-31T05:42:43;7.93;;;3.28;;
61085;SDS011;46967;48.876;2.136;2023-07-31T05:45:09;13.43;;;3.63;;
61085;SDS011;46967;48.876;2.136;2023-07-31T05:47:34;9.00;;;3.50;;
61085;SDS011;46967;48.876;2.136;2023-07-31T05:50:00;8.80;;;3.08;;
61085;SDS011;46967;48.876;2.136;2023-07-31T05:52:25;8.13;;;3.15;;
61085;SDS011;46967;48.876;2.136;2023-07-31T05:54:51;8.35;;;3.25;;
61085;SDS011;46967;48.876;2.136;2023-07-31T05:57:16;10.02;;;3.35;;
61085;SDS011;46967;48.876;2.136;2023-07-31T05:59:41;8.98;;;3.25;;
61085;SDS011;46967;48.876;2.136;2023-07-31T06:02:07;9.77;;;3.28;;
61085;SDS011;46967;48.876;2.136;2023-07-31T06:04:32;12.30;;;3.47;;
61085;SDS011;46967;48.876;2.136;2023-07-31T06:06:57;9.85;;;3.30;;
61085;SDS011;46967;48.876;2.136;2023-07-31T06:09:23;11.45;;;4.38;;
61085;SDS011;46967;48.876;2.136;2023-07-31T06:11:48;12.35;;;3.35;;
61085;SDS011;46967;48.876;2.136;2023-07-31T06:14:14;9.30;;;3.65;;
61085;SDS011;46967;48.876;2.136;2023-07-31T06:16:39;12.35;;;3.35;;
61085;SDS011;46967;48.876;2.136;2023-07-31T06:19:05;10.60;;;3.70;;
61085;SDS011;46967;48.876;2.136;2023-07-31T06:21:30;10.45;;;3.47;;
61085;SDS011;46967;48.876;2.136;2023-07-31T06:23:56;12.35;;;3.17;;
61085;SDS011;46967;48.876;2.136;2023-07-31T06:26:21;11.43;;;3.45;;
61085;SDS011;46967;48.876;2.136;2023-07-31T06:28:46;9.23;;;3.40;;
61085;SDS011;46967;48.876;2.136;2023-07-31T06:31:12;12.95;;;3.47;;
61085;SDS011;46967;48.876;2.136;2023-07-31T06:33:37;11.05;;;4.00;;
61085;SDS011;46967;48.876;2.136;2023-07-31T06:36:02;10.75;;;3.17;;
61085;SDS011;46967;48.876;2.136;2023-07-31T06:38:28;14.48;;;3.88;;
61085;SDS011;46967;48.876;2.136;2023-07-31T06:40:54;10.90;;;3.33;;
61085;SDS011;46967;48.876;2.136;2023-07-31T06:43:19;13.13;;;3.55;;
61085;SDS011;46967;48.876;2.136;2023-07-31T06:45:44;10.43;;;3.40;;
61085;SDS011;46967;48.876;2.136;2023-07-31T06:48:10;16.33;;;3.97;;
61085;SDS011;46967;48.876;2.136;2023-07-31T06:50:36;10.52;;;3.25;;
61085;SDS011;46967;48.876;2.136;2023-07-31T06:53:02;11.13;;;3.90;;
61085;SDS011;46967;48.876;2.136;2023-07-31T06:55:27;11.18;;;3.53;;
61085;SDS011;46967;48.876;2.136;2023-07-31T06:57:53;10.98;;;3.60;;
61085;SDS011;46967;48.876;2.136;2023-07-31T07:00:20;8.77;;;3.35;;
61085;SDS011;46967;48.876;2.136;2023-07-31T07:02:47;14.48;;;3.70;;
61085;SDS011;46967;48.876;2.136;2023-07-31T07:05:13;9.80;;;3.03;;
61085;SDS011;46967;48.876;2.136;2023-07-31T07:07:39;15.68;;;3.85;;
61085;SDS011;46967;48.876;2.136;2023-07-31T07:10:05;12.55;;;3.63;;
61085;SDS011;46967;48.876;2.136;2023-07-31T07:12:31;9.85;;;2.97;;
61085;SDS011;46967;48.876;2.136;2023-07-31T07:14:57;7.53;;;3.22;;
61085;SDS011;46967;48.876;2.136;2023-07-31T07:17:23;10.90;;;3.65;;
61085;SDS011;46967;48.876;2.136;2023-07-31T07:19:49;12.52;;;3.95;;
61085;SDS011;46967;48.876;2.136;2023-07-31T07:22:14;12.18;;;3.38;;
61085;SDS011;46967;48.876;2.136;2023-07-31T07:24:40;11.13;;;3.67;;
61085;SDS011;46967;48.876;2.136;2023-07-31T07:27:06;14.50;;;4.00;;
61085;SDS011;46967;48.876;2.136;2023-07-31T07:29:31;11.43;;;3.58;;
61085;SDS011;46967;48.876;2.136;2023-07-31T07:31:59;12.40;;;4.00;;
61085;SDS011;46967;48.876;2.136;2023-07-31T07:34:25;11.05;;;3.30;;
61085;SDS011;46967;48.876;2.136;2023-07-31T07:36:54;10.50;;;4.05;;
61085;SDS011;46967;48.876;2.136;2023-07-31T07:39:20;10.70;;;3.60;;
61085;SDS011;46967;48.876;2.136;2023-07-31T07:41:46;9.15;;;3.83;;
61085;SDS011;46967;48.876;2.136;2023-07-31T07:44:12;11.00;;;3.67;;
61085;SDS011;46967;48.876;2.136;2023-07-31T07:46:37;10.27;;;3.25;;
61085;SDS011;46967;48.876;2.136;2023-07-31T07:49:03;11.48;;;3.35;;
61085;SDS011;46967;48.876;2.136;2023-07-31T07:51:28;11.85;;;3.80;;
61085;SDS011;46967;48.876;2.136;2023-07-31T07:53:55;10.38;;;3.35;;
61085;SDS011;46967;48.876;2.136;2023-07-31T07:56:21;11.43;;;3.60;;
61085;SDS011;46967;48.876;2.136;2023-07-31T07:58:48;11.02;;;3.40;;
61085;SDS011;46967;48.876;2.136;2023-07-31T08:01:14;9.90;;;3.20;;
61085;SDS011;46967;48.876;2.136;2023-07-31T08:03:40;11.10;;;3.55;;
61085;SDS011;46967;48.876;2.136;2023-07-31T08:06:05;20.77;;;4.50;;
61085;SDS011;46967;48.876;2.136;2023-07-31T08:08:30;9.65;;;3.40;;
61085;SDS011;46967;48.876;2.136;2023-07-31T08:10:56;8.82;;;2.90;;
61085;SDS011;46967;48.876;2.136;2023-07-31T08:13:21;8.52;;;2.97;;
61085;SDS011;46967;48.876;2.136;2023-07-31T08:15:46;9.02;;;3.33;;
61085;SDS011;46967;48.876;2.136;2023-07-31T08:18:12;9.43;;;2.97;;
61085;SDS011;46967;48.876;2.136;2023-07-31T08:20:37;12.40;;;3.25;;
61085;SDS011;46967;48.876;2.136;2023-07-31T08:23:03;8.85;;;3.17;;
61085;SDS011;46967;48.876;2.136;2023-07-31T08:25:28;9.32;;;3.25;;
61085;SDS011;46967;48.876;2.136;2023-07-31T08:27:54;9.48;;;3.22;;
61085;SDS011;46967;48.876;2.136;2023-07-31T08:30:20;9.90;;;3.42;;
61085;SDS011;46967;48.876;2.136;2023-07-31T08:32:46;8.98;;;3.35;;
61085;SDS011;46967;48.876;2.136;2023-07-31T08:35:11;13.65;;;3.42;;
61085;SDS011;46967;48.876;2.136;2023-07-31T08:37:37;7.40;;;3.00;;
61085;SDS011;46967;48.876;2.136;2023-07-31T08:40:03;11.55;;;3.42;;
61085;SDS011;46967;48.876;2.136;2023-07-31T08:42:29;8.63;;;3.20;;
61085;SDS011;46967;48.876;2.136;2023-07-31T08:44:55;6.80;;;3.20;;
61085;SDS011;46967;48.876;2.136;2023-07-31T08:47:21;8.55;;;3.00;;
61085;SDS011;46967;48.876;2.136;2023-07-31T08:49:48;6.32;;;2.42;;
61085;SDS011;46967;48.876;2.136;2023-07-31T08:52:15;7.25;;;2.75;;
61085;SDS011;46967;48.876;2.136;2023-07-31T08:54:41;5.43;;;2.40;;
61085;SDS011;46967;48.876;2.136;2023-07-31T08:57:06;8.43;;;3.08;;
61085;SDS011;46967;48.876;2.136;2023-07-31T08:59:33;8.02;;;2.60;;
61085;SDS011;46967;48.876;2.136;2023-07-31T09:02:03;9.18;;;3.45;;
61085;SDS011;46967;48.876;2.136;2023-07-31T09:04:31;8.10;;;2.85;;
61085;SDS011;46967;48.876;2.136;2023-07-31T09:06:59;6.88;;;2.55;;
61085;SDS011;46967;48.876;2.136;2023-07-31T09:09:29;8.43;;;3.05;;
61085;SDS011;46967;48.876;2.136;2023-07-31T09:11:55;7.03;;;2.70;;
61085;SDS011;46967;48.876;2.136;2023-07-31T09:14:22;8.30;;;3.03;;
61085;SDS011;46967;48.876;2.136;2023-07-31T09:16:56;6.78;;;2.88;;
61085;SDS011;46967;48.876;2.136;2023-07-31T09:19:27;5.35;;;2.55;;
61085;SDS011;46967;48.876;2.136;2023-07-31T09:21:54;9.60;;;2.80;;
61085;SDS011;46967;48.876;2.136;2023-07-31T09:24:29;8.90;;;3.15;;
61085;SDS011;46967;48.876;2.136;2023-07-31T09:26:56;11.43;;;3.28;;
61085;SDS011;46967;48.876;2.136;2023-07-31T09:29:24;11.00;;;2.92;;
61085;SDS011;46967;48.876;2.136;2023-07-31T09:31:51;8.95;;;2.85;;
61085;SDS011;46967;48.876;2.136;2023-07-31T09:34:17;11.02;;;2.75;;
61085;SDS011;46967;48.876;2.136;2023-07-31T09:36:44;7.55;;;3.15;;
61085;SDS011;46967;48.876;2.136;2023-07-31T09:39:11;5.68;;;2.63;;
61085;SDS011;46967;48.876;2.136;2023-07-31T09:41:38;11.13;;;2.92;;
61085;SDS011;46967;48.876;2.136;2023-07-31T09:44:11;9.57;;;3.28;;
61085;SDS011;46967;48.876;2.136;2023-07-31T09:46:37;7.22;;;2.58;;
61085;SDS011;46967;48.876;2.136;2023-07-31T09:49:12;8.23;;;2.67;;
61085;SDS011;46967;48.876;2.136;2023-07-31T09:51:39;8.65;;;2.90;;
61085;SDS011;46967;48.876;2.136;2023-07-31T09:54:12;8.70;;;2.47;;
61085;SDS011;46967;48.876;2.136;2023-07-31T09:56:45;11.35;;;2.83;;
61085;SDS011;46967;48.876;2.136;2023-07-31T09:59:16;8.93;;;2.67;;
61085;SDS011;46967;48.876;2.136;2023-07-31T10:01:44;9.02;;;3.30;;
61085;SDS011;46967;48.876;2.136;2023-07-31T10:04:11;7.90;;;2.90;;
61085;SDS011;46967;48.876;2.136;2023-07-31T10:06:38;8.55;;;2.70;;
61085;SDS011;46967;48.876;2.136;2023-07-31T10:09:05;10.45;;;3.10;;
61085;SDS011;46967;48.876;2.136;2023-07-31T10:11:34;7.55;;;2.70;;
61085;SDS011;46967;48.876;2.136;2023-07-31T10:14:10;5.85;;;2.63;;
61085;SDS011;46967;48.876;2.136;2023-07-31T10:16:37;7.15;;;2.47;;
61085;SDS011;46967;48.876;2.136;2023-07-31T10:19:04;8.82;;;2.70;;
61085;SDS011;46967;48.876;2.136;2023-07-31T10:21:31;7.63;;;2.70;;
61085;SDS011;46967;48.876;2.136;2023-07-31T10:24:00;8.57;;;2.97;;
61085;SDS011;46967;48.876;2.136;2023-07-31T10:26:28;9.55;;;3.20;;
61085;SDS011;46967;48.876;2.136;2023-07-31T10:28:55;9.98;;;2.78;;
61085;SDS011;46967;48.876;2.136;2023-07-31T10:31:22;8.95;;;2.75;;
61085;SDS011;46967;48.876;2.136;2023-07-31T10:33:49;9.43;;;2.63;;
61085;SDS011;46967;48.876;2.136;2023-07-31T10:36:19;7.35;;;2.85;;
61085;SDS011;46967;48.876;2.136;2023-07-31T10:38:46;9.65;;;3.42;;
61085;SDS011;46967;48.876;2.136;2023-07-31T10:41:15;9.80;;;3.17;;
61085;SDS011;46967;48.876;2.136;2023-07-31T10:43:41;8.77;;;2.90;;
61085;SDS011;46967;48.876;2.136;2023-07-31T10:46:07;11.32;;;3.10;;
61085;SDS011;46967;48.876;2.136;2023-07-31T10:48:34;7.75;;;2.95;;
61085;SDS011;46967;48.876;2.136;2023-07-31T10:51:02;8.07;;;3.10;;
61085;SDS011;46967;48.876;2.136;2023-07-31T10:53:32;5.32;;;2.88;;
61085;SDS011;46967;48.876;2.136;2023-07-31T10:55:58;7.07;;;3.00;;
61085;SDS011;46967;48.876;2.136;2023-07-31T10:58:28;6.82;;;2.80;;
61085;SDS011;46967;48.876;2.136;2023-07-31T11:00:57;8.80;;;3.45;;
61085;SDS011;46967;48.876;2.136;2023-07-31T11:03:40;7.80;;;3.10;;
61085;SDS011;46967;48.876;2.136;2023-07-31T11:06:06;9.18;;;3.50;;
61085;SDS011;46967;48.876;2.136;2023-07-31T11:08:32;10.48;;;3.38;;
61085;SDS011;46967;48.876;2.136;2023-07-31T11:13:28;7.03;;;3.20;;
61085;SDS011;46967;48.876;2.136;2023-07-31T11:15:53;9.65;;;3.25;;
61085;SDS011;46967;48.876;2.136;2023-07-31T11:18:18;7.05;;;2.95;;
61085;SDS011;46967;48.876;2.136;2023-07-31T11:20:44;7.13;;;3.45;;
61085;SDS011;46967;48.876;2.136;2023-07-31T11:23:09;8.60;;;3.22;;
61085;SDS011;46967;48.876;2.136;2023-07-31T11:25:35;9.85;;;3.47;;
61085;SDS011;46967;48.876;2.136;2023-07-31T11:28:06;6.57;;;3.00;;
61085;SDS011;46967;48.876;2.136;2023-07-31T11:30:33;8.10;;;3.90;;
61085;SDS011;46967;48.876;2.136;2023-07-31T11:33:01;10.20;;;3.35;;
61085;SDS011;46967;48.876;2.136;2023-07-31T11:35:28;11.77;;;3.63;;
61085;SDS011;46967;48.876;2.136;2023-07-31T11:37:55;6.28;;;2.80;;
61085;SDS011;46967;48.876;2.136;2023-07-31T11:40:20;8.38;;;3.25;;
61085;SDS011;46967;48.876;2.136;2023-07-31T11:42:46;7.28;;;3.15;;
61085;SDS011;46967;48.876;2.136;2023-07-31T11:45:11;7.03;;;2.72;;
61085;SDS011;46967;48.876;2.136;2023-07-31T11:47:37;6.63;;;3.10;;
61085;SDS011;46967;48.876;2.136;2023-07-31T11:50:06;9.27;;;3.17;;
61085;SDS011;46967;48.876;2.136;2023-07-31T11:52:37;6.45;;;2.85;;
61085;SDS011;46967;48.876;2.136;2023-07-31T11:55:07;7.40;;;3.08;;
61085;SDS011;46967;48.876;2.136;2023-07-31T11:57:34;8.32;;;3.03;;
61085;SDS011;46967;48.876;2.136;2023-07-31T12:00:03;9.88;;;3.58;;
61085;SDS011;46967;48.876;2.136;2023-07-31T12:02:29;8.57;;;3.00;;
61085;SDS011;46967;48.876;2.136;2023-07-31T12:04:54;10.50;;;3.40;;
61085;SDS011;46967;48.876;2.136;2023-07-31T12:07:20;6.00;;;2.83;;
61085;SDS011;46967;48.876;2.136;2023-07-31T12:09:52;9.73;;;3.10;;
61085;SDS011;46967;48.876;2.136;2023-07-31T12:12:21;7.57;;;2.95;;
61085;SDS011;46967;48.876;2.136;2023-07-31T12:14:48;8.00;;;3.47;;
61085;SDS011;46967;48.876;2.136;2023-07-31T12:17:15;12.75;;;3.58;;
61085;SDS011;46967;48.876;2.136;2023-07-31T12:19:41;8.50;;;3.50;;
61085;SDS011;46967;48.876;2.136;2023-07-31T12:22:13;7.13;;;3.05;;
61085;SDS011;46967;48.876;2.136;2023-07-31T12:24:40;7.82;;;2.83;;
61085;SDS011;46967;48.876;2.136;2023-07-31T12:27:14;6.47;;;3.10;;
61085;SDS011;46967;48.876;2.136;2023-07-31T12:29:46;9.63;;;3.50;;
61085;SDS011;46967;48.876;2.136;2023-07-31T12:32:20;14.70;;;3.28;;
61085;SDS011;46967;48.876;2.136;2023-07-31T12:34:47;10.55;;;3.55;;
61085;SDS011;46967;48.876;2.136;2023-07-31T12:37:12;7.03;;;2.90;;
61085;SDS011;46967;48.876;2.136;2023-07-31T12:39:38;7.55;;;3.05;;
61085;SDS011;46967;48.876;2.136;2023-07-31T12:42:03;9.30;;;3.13;;
61085;SDS011;46967;48.876;2.136;2023-07-31T12:44:29;7.00;;;2.88;;
61085;SDS011;46967;48.876;2.136;2023-07-31T12:46:54;8.40;;;3.03;;
61085;SDS011;46967;48.876;2.136;2023-07-31T12:49:19;6.38;;;2.92;;
61085;SDS011;46967;48.876;2.136;2023-07-31T12:51:44;6.82;;;2.70;;
61085;SDS011;46967;48.876;2.136;2023-07-31T12:54:10;6.75;;;2.70;;
61085;SDS011;46967;48.876;2.136;2023-07-31T12:56:35;6.32;;;2.83;;
61085;SDS011;46967;48.876;2.136;2023-07-31T12:59:00;6.38;;;2.58;;
61085;SDS011;46967;48.876;2.136;2023-07-31T13:01:26;7.38;;;2.53;;
61085;SDS011;46967;48.876;2.136;2023-07-31T13:03:52;6.65;;;2.60;;
61085;SDS011;46967;48.876;2.136;2023-07-31T13:06:17;7.03;;;3.08;;
61085;SDS011;46967;48.876;2.136;2023-07-31T13:08:42;7.00;;;2.55;;
61085;SDS011;46967;48.876;2.136;2023-07-31T13:11:08;5.40;;;2.42;;
61085;SDS011;46967;48.876;2.136;2023-07-31T13:13:33;6.00;;;2.25;;
61085;SDS011;46967;48.876;2.136;2023-07-31T13:15:58;7.95;;;2.67;;
61085;SDS011;46967;48.876;2.136;2023-07-31T13:18:24;5.60;;;2.45;;
61085;SDS011;46967;48.876;2.136;2023-07-31T13:20:49;4.38;;;2.30;;
61085;SDS011;46967;48.876;2.136;2023-07-31T13:23:14;6.38;;;2.22;;
61085;SDS011;46967;48.876;2.136;2023-07-31T13:25:39;4.43;;;2.40;;
61085;SDS011;46967;48.876;2.136;2023-07-31T13:28:05;5.80;;;2.45;;
61085;SDS011;46967;48.876;2.136;2023-07-31T13:30:30;7.88;;;2.40;;
61085;SDS011;46967;48.876;2.136;2023-07-31T13:32:55;7.80;;;2.72;;
61085;SDS011;46967;48.876;2.136;2023-07-31T13:35:21;4.47;;;2.05;;
61085;SDS011;46967;48.876;2.136;2023-07-31T13:37:46;7.38;;;2.55;;
61085;SDS011;46967;48.876;2.136;2023-07-31T13:40:11;8.18;;;2.15;;
61085;SDS011;46967;48.876;2.136;2023-07-31T13:42:37;7.00;;;2.40;;
61085;SDS011;46967;48.876;2.136;2023-07-31T13:45:02;5.40;;;2.20;;
61085;SDS011;46967;48.876;2.136;2023-07-31T13:47:28;4.20;;;2.20;;
61085;SDS011;46967;48.876;2.136;2023-07-31T13:49:53;6.30;;;2.30;;
61085;SDS011;46967;48.876;2.136;2023-07-31T13:52:19;5.25;;;2.17;;
61085;SDS011;46967;48.876;2.136;2023-07-31T13:54:44;6.20;;;2.55;;
61085;SDS011;46967;48.876;2.136;2023-07-31T13:57:09;6.03;;;2.03;;
61085;SDS011;46967;48.876;2.136;2023-07-31T13:59:35;6.53;;;2.45;;
61085;SDS011;46967;48.876;2.136;2023-07-31T14:02:01;6.90;;;2.28;;
61085;SDS011;46967;48.876;2.136;2023-07-31T14:04:27;7.70;;;2.40;;
61085;SDS011;46967;48.876;2.136;2023-07-31T14:06:52;5.57;;;2.03;;
61085;SDS011;46967;48.876;2.136;2023-07-31T14:09:18;6.32;;;2.28;;
61085;SDS011;46967;48.876;2.136;2023-07-31T14:11:43;8.70;;;2.28;;
61085;SDS011;46967;48.876;2.136;2023-07-31T14:14:09;3.38;;;2.00;;
61085;SDS011;46967;48.876;2.136;2023-07-31T14:16:35;6.57;;;2.65;;
61085;SDS011;46967;48.876;2.136;2023-07-31T14:19:00;8.13;;;2.42;;
61085;SDS011;46967;48.876;2.136;2023-07-31T14:21:25;5.22;;;2.42;;
61085;SDS011;46967;48.876;2.136;2023-07-31T14:23:51;7.20;;;2.70;;
61085;SDS011;46967;48.876;2.136;2023-07-31T14:26:16;8.88;;;3.45;;
61085;SDS011;46967;48.876;2.136;2023-07-31T14:28:42;8.35;;;2.65;;
61085;SDS011;46967;48.876;2.136;2023-07-31T14:31:07;7.35;;;2.88;;
61085;SDS011;46967;48.876;2.136;2023-07-31T14:33:33;6.97;;;2.53;;
61085;SDS011;46967;48.876;2.136;2023-07-31T14:35:58;8.88;;;3.20;;
61085;SDS011;46967;48.876;2.136;2023-07-31T14:38:24;6.05;;;2.47;;
61085;SDS011;46967;48.876;2.136;2023-07-31T14:40:49;8.27;;;3.17;;
61085;SDS011;46967;48.876;2.136;2023-07-31T14:43:16;9.70;;;2.70;;
61085;SDS011;46967;48.876;2.136;2023-07-31T14:45:41;6.72;;;2.22;;
61085;SDS011;46967;48.876;2.136;2023-07-31T14:48:06;5.47;;;2.53;;
61085;SDS011;46967;48.876;2.136;2023-07-31T14:50:32;7.18;;;3.03;;